Boling, Texas
Current Conditions -  °F | °C
As of 6:15 AM on Saturday 25 Oct 2014 (Local Time) from KARM Reporting Station
Clear Clear  
Wind Chill: 55°   Ceiling: Unl
Heat Index: 55°   Visibility: 10mi
Dew Point: 53°   Wind: 0mph
Humidity: 91%   Direction: NA
Pressure: 30.15"   Gusts: NA
Location:  29.26°N, 95.94°W
Report Text: KARM 251115Z AUTO 00000KT 10SM CLR 13/12 A3015 RMK AO2 T01300116
Loading
Personal Weather Stations






























Interactive Weather Map
Tropical Storm Tracking
New forecast layout! Learn more

10-Day Weather Forecast

Advertisements
Track Severe Weather on mobile